sensor_id;sensor_type;location;lat;lon;timestamp;P1;durP1;ratioP1;P2;durP2;ratioP2
25649;SDS011;13505;45.196;5.696;2023-03-16T05:02:17;2.47;;;1.20;;
25649;SDS011;13505;45.196;5.696;2023-03-16T05:07:08;3.42;;;1.60;;
25649;SDS011;13505;45.196;5.696;2023-03-16T05:11:59;4.40;;;1.63;;
25649;SDS011;13505;45.196;5.696;2023-03-16T05:16:49;2.22;;;1.52;;
25649;SDS011;13505;45.196;5.696;2023-03-16T05:21:41;4.93;;;1.92;;
25649;SDS011;13505;45.196;5.696;2023-03-16T05:26:31;2.63;;;1.58;;
25649;SDS011;13505;45.196;5.696;2023-03-16T05:31:22;3.90;;;1.60;;
25649;SDS011;13505;45.196;5.696;2023-03-16T05:36:15;2.33;;;1.55;;
25649;SDS011;13505;45.196;5.696;2023-03-16T05:41:06;4.43;;;1.60;;
25649;SDS011;13505;45.196;5.696;2023-03-16T05:45:56;3.40;;;1.77;;
25649;SDS011;13505;45.196;5.696;2023-03-16T05:50:47;3.72;;;2.03;;
25649;SDS011;13505;45.196;5.696;2023-03-16T05:55:37;5.47;;;2.10;;
25649;SDS011;13505;45.196;5.696;2023-03-16T06:00:28;6.90;;;2.25;;
25649;SDS011;13505;45.196;5.696;2023-03-16T06:05:18;5.43;;;2.63;;
25649;SDS011;13505;45.196;5.696;2023-03-16T06:10:14;5.60;;;2.28;;
25649;SDS011;13505;45.196;5.696;2023-03-16T06:15:04;7.50;;;2.58;;
25649;SDS011;13505;45.196;5.696;2023-03-16T06:19:59;5.18;;;2.47;;
25649;SDS011;13505;45.196;5.696;2023-03-16T06:24:50;7.57;;;2.92;;
25649;SDS011;13505;45.196;5.696;2023-03-16T06:29:41;5.35;;;2.50;;
25649;SDS011;13505;45.196;5.696;2023-03-16T06:34:31;7.05;;;2.55;;
25649;SDS011;13505;45.196;5.696;2023-03-16T06:39:23;8.00;;;3.45;;
25649;SDS011;13505;45.196;5.696;2023-03-16T06:44:13;9.45;;;3.22;;
25649;SDS011;13505;45.196;5.696;2023-03-16T06:49:04;10.13;;;3.10;;
25649;SDS011;13505;45.196;5.696;2023-03-16T06:53:54;8.77;;;2.90;;
25649;SDS011;13505;45.196;5.696;2023-03-16T06:58:44;6.25;;;2.80;;
25649;SDS011;13505;45.196;5.696;2023-03-16T07:03:35;6.43;;;3.25;;
25649;SDS011;13505;45.196;5.696;2023-03-16T07:08:25;8.88;;;3.92;;
25649;SDS011;13505;45.196;5.696;2023-03-16T07:13:16;7.60;;;3.60;;
25649;SDS011;13505;45.196;5.696;2023-03-16T07:18:07;5.78;;;2.50;;
25649;SDS011;13505;45.196;5.696;2023-03-16T07:22:57;6.68;;;3.20;;
25649;SDS011;13505;45.196;5.696;2023-03-16T07:27:47;6.80;;;2.90;;
25649;SDS011;13505;45.196;5.696;2023-03-16T07:32:38;5.90;;;3.10;;
25649;SDS011;13505;45.196;5.696;2023-03-16T07:37:30;5.95;;;3.25;;
25649;SDS011;13505;45.196;5.696;2023-03-16T07:42:21;6.03;;;2.85;;
25649;SDS011;13505;45.196;5.696;2023-03-16T07:47:11;5.93;;;2.80;;
25649;SDS011;13505;45.196;5.696;2023-03-16T07:52:02;10.63;;;2.40;;
25649;SDS011;13505;45.196;5.696;2023-03-16T07:56:52;7.30;;;2.13;;
25649;SDS011;13505;45.196;5.696;2023-03-16T08:01:43;4.28;;;1.95;;
25649;SDS011;13505;45.196;5.696;2023-03-16T08:06:35;3.60;;;1.63;;
25649;SDS011;13505;45.196;5.696;2023-03-16T08:11:25;5.47;;;1.77;;
25649;SDS011;13505;45.196;5.696;2023-03-16T08:16:16;8.20;;;2.15;;
25649;SDS011;13505;45.196;5.696;2023-03-16T08:21:06;11.30;;;3.38;;
25649;SDS011;13505;45.196;5.696;2023-03-16T08:25:57;7.63;;;2.85;;
25649;SDS011;13505;45.196;5.696;2023-03-16T08:30:48;5.00;;;2.37;;
25649;SDS011;13505;45.196;5.696;2023-03-16T08:35:41;12.20;;;4.78;;
25649;SDS011;13505;45.196;5.696;2023-03-16T08:40:33;5.75;;;2.03;;
25649;SDS011;13505;45.196;5.696;2023-03-16T08:45:23;4.90;;;2.78;;
25649;SDS011;13505;45.196;5.696;2023-03-16T08:50:14;7.47;;;2.42;;
25649;SDS011;13505;45.196;5.696;2023-03-16T08:55:05;4.03;;;2.38;;
25649;SDS011;13505;45.196;5.696;2023-03-16T08:59:56;5.35;;;2.40;;
25649;SDS011;13505;45.196;5.696;2023-03-16T09:04:47;7.13;;;1.88;;
25649;SDS011;13505;45.196;5.696;2023-03-16T09:09:38;5.45;;;2.10;;
25649;SDS011;13505;45.196;5.696;2023-03-16T09:14:29;5.60;;;2.25;;
25649;SDS011;13505;45.196;5.696;2023-03-16T09:19:19;7.28;;;3.28;;
25649;SDS011;13505;45.196;5.696;2023-03-16T09:24:10;2.50;;;1.70;;
25649;SDS011;13505;45.196;5.696;2023-03-16T09:29:03;50.03;;;16.08;;
25649;SDS011;13505;45.196;5.696;2023-03-16T09:33:55;7.03;;;2.90;;
25649;SDS011;13505;45.196;5.696;2023-03-16T09:38:46;11.03;;;4.60;;
25649;SDS011;13505;45.196;5.696;2023-03-16T09:43:59;7.90;;;2.47;;
25649;SDS011;13505;45.196;5.696;2023-03-16T09:48:58;4.60;;;2.00;;
25649;SDS011;13505;45.196;5.696;2023-03-16T09:53:50;14.30;;;5.68;;
25649;SDS011;13505;45.196;5.696;2023-03-16T09:58:47;6.75;;;5.07;;
25649;SDS011;13505;45.196;5.696;2023-03-16T10:08:38;5.13;;;2.28;;
25649;SDS011;13505;45.196;5.696;2023-03-16T10:13:40;4.38;;;2.35;;
25649;SDS011;13505;45.196;5.696;2023-03-16T10:18:34;5.10;;;1.70;;
25649;SDS011;13505;45.196;5.696;2023-03-16T10:23:30;7.22;;;1.88;;
25649;SDS011;13505;45.196;5.696;2023-03-16T10:28:25;5.68;;;1.88;;
25649;SDS011;13505;45.196;5.696;2023-03-16T10:33:18;5.38;;;1.92;;
25649;SDS011;13505;45.196;5.696;2023-03-16T10:43:15;5.20;;;2.05;;
25649;SDS011;13505;45.196;5.696;2023-03-16T10:48:13;4.00;;;1.50;;
25649;SDS011;13505;45.196;5.696;2023-03-16T10:53:09;6.50;;;1.90;;
25649;SDS011;13505;45.196;5.696;2023-03-16T10:58:07;2.10;;;1.40;;
25649;SDS011;13505;45.196;5.696;2023-03-16T11:02:58;5.47;;;1.45;;
25649;SDS011;13505;45.196;5.696;2023-03-16T11:07:50;3.42;;;1.40;;
25649;SDS011;13505;45.196;5.696;2023-03-16T11:13:02;2.58;;;1.50;;
25649;SDS011;13505;45.196;5.696;2023-03-16T11:17:59;2.80;;;1.20;;
25649;SDS011;13505;45.196;5.696;2023-03-16T11:22:49;1.52;;;1.13;;
25649;SDS011;13505;45.196;5.696;2023-03-16T11:32:53;4.80;;;1.30;;
25649;SDS011;13505;45.196;5.696;2023-03-16T11:58:59;2.85;;;1.17;;
25649;SDS011;13505;45.196;5.696;2023-03-16T12:14:20;4.68;;;1.52;;
25649;SDS011;13505;45.196;5.696;2023-03-16T12:24:26;4.07;;;1.90;;
25649;SDS011;13505;45.196;5.696;2023-03-16T12:34:30;4.53;;;1.60;;
25649;SDS011;13505;45.196;5.696;2023-03-16T12:44:31;2.10;;;1.20;;
25649;SDS011;13505;45.196;5.696;2023-03-16T12:49:33;2.10;;;1.13;;
25649;SDS011;13505;45.196;5.696;2023-03-16T12:54:26;4.40;;;1.40;;
25649;SDS011;13505;45.196;5.696;2023-03-16T12:59:18;4.95;;;1.45;;
25649;SDS011;13505;45.196;5.696;2023-03-16T13:04:17;4.35;;;1.20;;
25649;SDS011;13505;45.196;5.696;2023-03-16T13:09:23;3.03;;;0.98;;
25649;SDS011;13505;45.196;5.696;2023-03-16T13:14:29;2.55;;;1.20;;
25649;SDS011;13505;45.196;5.696;2023-03-16T13:19:27;8.48;;;1.58;;
25649;SDS011;13505;45.196;5.696;2023-03-16T13:29:28;3.55;;;1.10;;
25649;SDS011;13505;45.196;5.696;2023-03-16T13:39:14;6.63;;;1.15;;
25649;SDS011;13505;45.196;5.696;2023-03-16T13:44:14;4.70;;;1.00;;
25649;SDS011;13505;45.196;5.696;2023-03-16T13:49:04;2.70;;;0.98;;
25649;SDS011;13505;45.196;5.696;2023-03-16T13:53:55;3.42;;;1.10;;
25649;SDS011;13505;45.196;5.696;2023-03-16T13:58:49;3.40;;;1.30;;
25649;SDS011;13505;45.196;5.696;2023-03-16T14:03:41;3.38;;;1.20;;
25649;SDS011;13505;45.196;5.696;2023-03-16T14:08:31;2.83;;;1.10;;
25649;SDS011;13505;45.196;5.696;2023-03-16T14:13:24;4.57;;;1.50;;
25649;SDS011;13505;45.196;5.696;2023-03-16T14:18:25;2.20;;;1.20;;
25649;SDS011;13505;45.196;5.696;2023-03-16T14:23:24;4.28;;;1.33;;
25649;SDS011;13505;45.196;5.696;2023-03-16T14:28:32;1.92;;;0.93;;
25649;SDS011;13505;45.196;5.696;2023-03-16T14:33:27;1.98;;;1.17;;
25649;SDS011;13505;45.196;5.696;2023-03-16T14:38:29;3.72;;;1.20;;
25649;SDS011;13505;45.196;5.696;2023-03-16T14:43:29;4.97;;;1.33;;
25649;SDS011;13505;45.196;5.696;2023-03-16T14:48:22;5.80;;;1.20;;
25649;SDS011;13505;45.196;5.696;2023-03-16T14:53:13;5.60;;;1.10;;
25649;SDS011;13505;45.196;5.696;2023-03-16T14:58:03;1.50;;;0.90;;
25649;SDS011;13505;45.196;5.696;2023-03-16T15:03:15;1.95;;;1.20;;
25649;SDS011;13505;45.196;5.696;2023-03-16T15:08:10;2.40;;;1.20;;
25649;SDS011;13505;45.196;5.696;2023-03-16T15:13:14;5.20;;;1.48;;
25649;SDS011;13505;45.196;5.696;2023-03-16T15:18:24;3.95;;;1.27;;
25649;SDS011;13505;45.196;5.696;2023-03-16T15:23:14;3.70;;;1.00;;
25649;SDS011;13505;45.196;5.696;2023-03-16T15:33:01;2.10;;;1.10;;
25649;SDS011;13505;45.196;5.696;2023-03-16T15:37:51;3.88;;;1.00;;
25649;SDS011;13505;45.196;5.696;2023-03-16T15:42:43;4.72;;;1.33;;
25649;SDS011;13505;45.196;5.696;2023-03-16T15:47:33;5.68;;;1.20;;
25649;SDS011;13505;45.196;5.696;2023-03-16T15:52:25;4.20;;;1.02;;
25649;SDS011;13505;45.196;5.696;2023-03-16T15:57:20;5.63;;;1.20;;
25649;SDS011;13505;45.196;5.696;2023-03-16T16:02:21;2.35;;;1.05;;
25649;SDS011;13505;45.196;5.696;2023-03-16T16:07:17;2.85;;;1.08;;
25649;SDS011;13505;45.196;5.696;2023-03-16T16:12:10;6.50;;;1.20;;
25649;SDS011;13505;45.196;5.696;2023-03-16T16:17:01;3.25;;;1.08;;
25649;SDS011;13505;45.196;5.696;2023-03-16T16:21:51;3.85;;;1.17;;
25649;SDS011;13505;45.196;5.696;2023-03-16T16:26:43;3.13;;;1.00;;
25649;SDS011;13505;45.196;5.696;2023-03-16T16:31:37;2.83;;;1.08;;
25649;SDS011;13505;45.196;5.696;2023-03-16T16:36:28;3.33;;;1.03;;
25649;SDS011;13505;45.196;5.696;2023-03-16T16:46:14;2.00;;;1.00;;
25649;SDS011;13505;45.196;5.696;2023-03-16T16:51:13;2.45;;;1.27;;
25649;SDS011;13505;45.196;5.696;2023-03-16T16:56:13;3.58;;;1.33;;
25649;SDS011;13505;45.196;5.696;2023-03-16T17:01:14;4.30;;;2.28;;
25649;SDS011;13505;45.196;5.696;2023-03-16T17:06:14;4.45;;;2.10;;
25649;SDS011;13505;45.196;5.696;2023-03-16T17:11:10;4.13;;;2.05;;
25649;SDS011;13505;45.196;5.696;2023-03-16T17:16:05;4.47;;;2.60;;
25649;SDS011;13505;45.196;5.696;2023-03-16T17:20:56;5.97;;;2.65;;
25649;SDS011;13505;45.196;5.696;2023-03-16T17:25:46;4.78;;;1.95;;
25649;SDS011;13505;45.196;5.696;2023-03-16T17:30:37;5.88;;;2.08;;
25649;SDS011;13505;45.196;5.696;2023-03-16T17:35:28;5.37;;;1.97;;
25649;SDS011;13505;45.196;5.696;2023-03-16T17:40:19;3.87;;;1.80;;
25649;SDS011;13505;45.196;5.696;2023-03-16T17:45:19;7.53;;;2.30;;
25649;SDS011;13505;45.196;5.696;2023-03-16T17:55:11;5.18;;;2.40;;
25649;SDS011;13505;45.196;5.696;2023-03-16T18:00:05;7.68;;;3.67;;
25649;SDS011;13505;45.196;5.696;2023-03-16T18:05:50;20.45;;;10.68;;
25649;SDS011;13505;45.196;5.696;2023-03-16T18:10:24;33.83;;;15.95;;
25649;SDS011;13505;45.196;5.696;2023-03-16T18:15:17;25.45;;;9.52;;
25649;SDS011;13505;45.196;5.696;2023-03-16T18:20:18;14.30;;;7.30;;
25649;SDS011;13505;45.196;5.696;2023-03-16T18:25:23;10.85;;;6.47;;
25649;SDS011;13505;45.196;5.696;2023-03-16T18:30:17;13.52;;;6.32;;
25649;SDS011;13505;45.196;5.696;2023-03-16T18:35:12;11.43;;;5.40;;
25649;SDS011;13505;45.196;5.696;2023-03-16T18:40:08;10.27;;;5.40;;
25649;SDS011;13505;45.196;5.696;2023-03-16T18:45:01;15.98;;;7.38;;
25649;SDS011;13505;45.196;5.696;2023-03-16T18:49:52;12.40;;;6.20;;
25649;SDS011;13505;45.196;5.696;2023-03-16T18:54:43;11.17;;;6.23;;
25649;SDS011;13505;45.196;5.696;2023-03-16T18:59:35;10.48;;;5.88;;
25649;SDS011;13505;45.196;5.696;2023-03-16T19:04:26;11.90;;;6.75;;
25649;SDS011;13505;45.196;5.696;2023-03-16T19:09:23;13.25;;;6.53;;
25649;SDS011;13505;45.196;5.696;2023-03-16T19:14:20;12.80;;;6.55;;
25649;SDS011;13505;45.196;5.696;2023-03-16T19:19:13;15.50;;;8.13;;
25649;SDS011;13505;45.196;5.696;2023-03-16T19:24:04;17.48;;;8.63;;
25649;SDS011;13505;45.196;5.696;2023-03-16T19:28:56;13.18;;;7.72;;
25649;SDS011;13505;45.196;5.696;2023-03-16T19:33:46;13.45;;;7.80;;
25649;SDS011;13505;45.196;5.696;2023-03-16T19:38:37;14.77;;;7.43;;
25649;SDS011;13505;45.196;5.696;2023-03-16T19:43:27;17.10;;;7.70;;
25649;SDS011;13505;45.196;5.696;2023-03-16T19:48:19;14.60;;;8.30;;
25649;SDS011;13505;45.196;5.696;2023-03-16T19:53:17;21.13;;;10.57;;
25649;SDS011;13505;45.196;5.696;2023-03-16T19:58:14;22.10;;;13.40;;
25649;SDS011;13505;45.196;5.696;2023-03-16T20:03:09;16.65;;;8.82;;
25649;SDS011;13505;45.196;5.696;2023-03-16T20:08:01;15.38;;;8.75;;
25649;SDS011;13505;45.196;5.696;2023-03-16T20:12:56;15.48;;;8.82;;
25649;SDS011;13505;45.196;5.696;2023-03-16T20:17:47;18.25;;;8.70;;
25649;SDS011;13505;45.196;5.696;2023-03-16T20:22:39;15.55;;;7.47;;
25649;SDS011;13505;45.196;5.696;2023-03-16T20:27:29;14.23;;;7.60;;
25649;SDS011;13505;45.196;5.696;2023-03-16T20:32:21;12.30;;;6.25;;
25649;SDS011;13505;45.196;5.696;2023-03-16T20:37:23;10.73;;;6.43;;
25649;SDS011;13505;45.196;5.696;2023-03-16T20:42:16;12.60;;;5.72;;
25649;SDS011;13505;45.196;5.696;2023-03-16T20:47:18;8.77;;;4.53;;
25649;SDS011;13505;45.196;5.696;2023-03-16T20:52:18;13.85;;;6.28;;
25649;SDS011;13505;45.196;5.696;2023-03-16T20:57:15;9.25;;;5.35;;
25649;SDS011;13505;45.196;5.696;2023-03-16T21:02:18;9.77;;;5.50;;
25649;SDS011;13505;45.196;5.696;2023-03-16T21:07:16;8.70;;;5.45;;
25649;SDS011;13505;45.196;5.696;2023-03-16T21:12:12;9.98;;;5.55;;
25649;SDS011;13505;45.196;5.696;2023-03-16T21:17:24;10.40;;;5.50;;
25649;SDS011;13505;45.196;5.696;2023-03-16T21:22:21;9.87;;;5.90;;
25649;SDS011;13505;45.196;5.696;2023-03-16T21:27:24;8.98;;;5.78;;
25649;SDS011;13505;45.196;5.696;2023-03-16T21:32:18;13.02;;;6.43;;
25649;SDS011;13505;45.196;5.696;2023-03-16T21:37:11;14.57;;;5.63;;
25649;SDS011;13505;45.196;5.696;2023-03-16T21:42:03;11.13;;;6.65;;
25649;SDS011;13505;45.196;5.696;2023-03-16T21:46:54;11.77;;;5.85;;
25649;SDS011;13505;45.196;5.696;2023-03-16T21:51:44;8.90;;;5.50;;
25649;SDS011;13505;45.196;5.696;2023-03-16T21:56:35;12.35;;;6.22;;
25649;SDS011;13505;45.196;5.696;2023-03-16T22:01:30;15.10;;;7.55;;
25649;SDS011;13505;45.196;5.696;2023-03-16T22:06:22;20.05;;;8.18;;
25649;SDS011;13505;45.196;5.696;2023-03-16T22:11:15;17.42;;;8.10;;
25649;SDS011;13505;45.196;5.696;2023-03-16T22:16:11;14.52;;;7.53;;
25649;SDS011;13505;45.196;5.696;2023-03-16T22:26:27;13.15;;;7.15;;
25649;SDS011;13505;45.196;5.696;2023-03-16T22:31:24;16.55;;;7.95;;
25649;SDS011;13505;45.196;5.696;2023-03-16T22:36:19;15.48;;;7.70;;
25649;SDS011;13505;45.196;5.696;2023-03-16T22:41:12;13.95;;;7.53;;
25649;SDS011;13505;45.196;5.696;2023-03-16T22:46:04;14.85;;;7.60;;
25649;SDS011;13505;45.196;5.696;2023-03-16T22:50:55;11.73;;;6.25;;
25649;SDS011;13505;45.196;5.696;2023-03-16T22:55:53;11.73;;;6.47;;
